AGROMETEOROLOŠKI PORTAL

Vinorodna pokrajina

Temelj dobrega kmetovanja.

Pregled podatkov za lokacijo BORŠT PRI GORENJI VASI ARSO, meteorološka postaja 111

Pregled senzorjev na lokaciji

ID Ime Zadnja
vrednost
Datum in čas
meritve
(lokalni čas)
Tip
senzorja
2503 Sončno sevanje (W/m2) 325 W/m2 3.10.2023 16:30 ARSO
2509 Padavine (mm) 0 mm 3.10.2023 16:30 ARSO
2517 Relativna zračna vlaga (2 m) (% RH) 56 % RH 3.10.2023 16:30 ARSO
2516 Temperatura (2 m) (°C) 22,4 °C 3.10.2023 16:30 ARSO
2521 Smer vetra (2 m) (°) 252 ° 3.10.2023 16:30 ARSO
2522 Hitrost vetra (2 m) (km/h) 12 km/h 3.10.2023 16:30 ARSO

Pregled podatkov zadnjih 24 ur

Zap.
št.
Datum in čas
(lokalni čas)
BORŠT PRI GORENJI VASI ARSO
Sončno
sevanje
Padavine Relativna
zračna
vlaga
(2
m)
Temperatura
(2
m)
Smer
vetra
(2
m)
Hitrost
vetra
(2
m)
1 3.10.2023 16:30 324,7 0 56 22,4 251,7 12,3
2 3.10.2023 16:00 416,7 0 52,7 22,9 239,3 13,3
3 3.10.2023 15:30 482,3 0 52 23,2 253,7 13
4 3.10.2023 15:00 526 0 52,3 23,1 259 12,7
5 3.10.2023 14:30 572,7 0 52,3 22,9 263,3 15
6 3.10.2023 14:00 607,3 0 54,3 22,7 253,7 15
7 3.10.2023 13:30 621,3 0 56,7 22,3 262,3 14,3
8 3.10.2023 13:00 623,3 0 58,3 22,1 262,7 12
9 3.10.2023 12:30 611,7 0 59,7 21,6 250,3 12
10 3.10.2023 12:00 579 0 62 21,1 249,7 12,7
11 3.10.2023 11:30 553 0 64,3 20,5 230 11,3
12 3.10.2023 11:00 492 0 71 19,6 241,3 9
13 3.10.2023 10:30 397 0 77,3 18,3 200 5
14 3.10.2023 10:00 124,7 0 82,7 17,4 201 4
15 3.10.2023 09:30 98 0 85,7 16,9 200 6
16 3.10.2023 09:00 82 0 90,3 16,1 175 6
17 3.10.2023 08:30 66 0 92 15,6 166,3 5,3
18 3.10.2023 08:00 40,3 0 96 14,7 152 3,3
19 3.10.2023 07:30 11 0,1 97,3 14,5 149,2 3,7
20 3.10.2023 07:00 1,7 0 99 13 134,3 2,3
21 3.10.2023 06:30 1,3 0 99 12,5 155,1 2
22 3.10.2023 06:00 2 0 99 12,2 210,2 2
23 3.10.2023 05:30 1,3 0 99 12,2 198,2 3,3
24 3.10.2023 05:00 2 0 99 11,2 190,9 2
25 3.10.2023 04:30 2 0 99 11,5 78,5 1,7
26 3.10.2023 04:00 1,7 0 99 11,5 77 1,7
27 3.10.2023 03:30 1,7 0 99 12 239,4 2,7
28 3.10.2023 03:00 1,7 0 99 12 106,4 2
29 3.10.2023 02:30 2,3 0 99 11,7 96,7 1,7
30 3.10.2023 02:00 1,7 0 98,7 12,1 262,7 1,7
31 3.10.2023 01:30 2 0 99 12,5 291,9 1,3
32 3.10.2023 01:00 2 0 98 12,8 190,7 1,7
33 3.10.2023 00:30 2 0 98 13,4 357 1
34 3.10.2023 00:00 2 0 98 13,8 212,9 1,3
35 2.10.2023 23:30 2 0 98 14,1 133,8 1,3
36 2.10.2023 23:00 2 0 97 14,5 194,4 0,7
37 2.10.2023 22:30 2 0 97 14,9 137,3 1
38 2.10.2023 22:00 2 0 95,7 15,1 165,3 1,7
39 2.10.2023 21:30 2 0 95,3 15,4 179,3 1,3
40 2.10.2023 21:00 2 0 92,7 15,9 148,6 1
41 2.10.2023 20:30 2 0 91,7 16,5 131 1,3
42 2.10.2023 20:00 2,3 0 89 17 118,4 1,7
43 2.10.2023 19:30 2,7 0 86 17,5 143,4 1,3
44 2.10.2023 19:00 9 0 85,7 18,2 127 1,3
45 2.10.2023 18:30 38 0 82 20,1 205,4 1,3
46 2.10.2023 18:00 100,3 0 72,7 22,4 262 2,3